DW1354 Weather Reports


time (UTC)temp
C
wind
direction
speed
KPH
gust
KPH
rain 1hr
cm
rain 24hr
cm
rain mn
cm
humidity
%
barometer
mb
20211017153022 15 0.0 0.0 0.00 0.00 0.00 66 1014.7
20211017152023 14 0.0 0.0 0.00 0.00 0.00 64 1014.7
20211017151021 14 0.0 0.0 0.00 0.00 0.00 66 1014.7
20211017150022 14 0.0 0.0 0.00 0.00 0.00 68 1014.7
20211017145021 13 0.0 0.0 0.00 0.00 0.00 69 1014.7
20211017144017 13 0.0 0.0 0.00 0.00 0.00 66 1014.7
20211017143015 13 0.0 0.0 0.00 0.00 0.00 70 1014.7
20211017142020 12 0.0 0.0 0.00 0.00 0.00 75 1014.7
20211017141022 12 0.0 0.0 0.00 0.00 0.00 74 1014.8
20211017140021 12 0.0 0.0 0.00 0.00 0.00 77 1014.8
20211017135022 11 0.0 0.0 0.00 0.00 0.00 78 1014.9
20211017134022 11 0.0 0.0 0.00 0.00 0.00 76 1015.0
20211017133016 11 0.0 0.0 0.00 0.00 0.00 75 1014.9
20211017132015 11 0.0 0.0 0.00 0.00 0.00 78 1015.0
20211017131020 10 0.0 0.0 0.00 0.00 0.00 78 1014.9
20211017130022 10 0.0 0.0 0.00 0.00 0.00 80 1014.8
20211017125020 10 0.0 0.0 0.00 0.00 0.00 79 1014.8
20211017124021 10 0.0 0.0 0.00 0.00 0.00 80 1014.8
20211017123022 10 0.0 0.0 0.00 0.00 0.00 81 1014.9
20211017122128 -17 0.0 0.0 0.00 0.00 0.00
20211017121516 -17 0.0 0.0 0.00 0.00 0.00
20211017120534 -17 0.0 0.0 0.00 0.00 0.00
20211017120024 -17 0.0 0.0 0.00 0.00 0.00
20211017115021 -17 0.0 0.0 0.00 0.00 0.00
20211017114520 -17 0.0 0.0 0.00 0.00 0.00
20211017113521 -17 0.0 0.0 0.00 0.00 0.00
20211017113019 -17 0.0 0.0 0.00 0.00 0.00
20211017112520 -17 0.0 0.0 0.00 0.00 0.00
20211017111521 -17 0.0 0.0 0.00 0.00 0.00
20211017111020 -17 0.0 0.0 0.00 0.00 0.00
20211017110020 -17 0.0 0.0 0.00 0.00 0.00
20211017105617 -17 0.0 0.0 0.00 0.00 0.00
20211017105020 -17 0.0 0.0 0.00 0.00 0.00
20211017104039 -17 0.0 0.0 0.00 0.00 0.00
20211017103535 7 0.0 0.0 0.00 0.00 0.00 89 1013.9
20211017102520 7 0.0 0.0 0.00 0.00 0.00 92 1013.6
20211017101520 7 0.0 0.0 0.00 0.00 0.00 91 1013.8
20211017100515 7 0.0 0.0 0.00 0.00 0.00 91 1013.8
20211017095517 7 0.0 0.0 0.00 0.00 0.00 91 1013.8
20211017094522 7 0.0 0.0 0.00 0.00 0.00 91 1013.8
20211017093520 7 0.0 0.0 0.00 0.00 0.00 92 1013.7
20211017092521 7 0.0 0.0 0.00 0.00 0.00 91 1013.7
20211017091520 7 0.0 0.0 0.00 0.00 0.00 91 1013.6
20211017090520 7 0.0 0.0 0.00 0.00 0.00 91 1013.5
20211017085515 7 0.0 0.0 0.00 0.00 0.00 91 1013.4
20211017084517 7 0.0 0.0 0.00 0.00 0.00 91 1013.3
20211017083522 7 0.0 0.0 0.00 0.00 0.00 90 1013.4
20211017082520 8 0.0 0.0 0.00 0.00 0.00 90 1013.4
20211017081520 8 0.0 0.0 0.00 0.00 0.00 91 1013.4
20211017080520 8 0.0 0.0 0.00 0.00 0.00 92 1013.4
20211017075520 8 0.0 0.0 0.00 0.00 0.00 91 1013.5
20211017074515 8 0.0 0.0 0.00 0.00 0.00 91 1013.5
20211017073520 8 0.0 0.0 0.00 0.00 0.00 91 1013.4
20211017072520 8 0.0 0.0 0.00 0.00 0.00 91 1013.4
20211017071520 8 0.0 0.0 0.00 0.00 0.00 91 1013.3
20211017070520 8 0.0 0.0 0.00 0.00 0.00 92 1013.2
20211017065520 9 0.0 0.0 0.00 0.00 0.00 92 1013.3
20211017064520 9 0.0 0.0 0.00 0.00 0.00 92 1013.1
20211017063515 10 0.0 0.0 0.00 0.00 0.00 92 1013.3
20211017062520 10 0.0 0.0 0.00 0.00 0.00 92 1013.4
20211017061520 10 0.0 0.0 0.00 0.00 0.00 92 1013.4
20211017060520 10 0.0 0.0 0.00 0.00 0.00 92 1013.4
20211017055522 10 0.0 0.0 0.00 0.00 0.00 92 1013.3
20211017054520 10 0.0 0.0 0.00 0.00 0.00 92 1013.3
20211017053520 10 0.0 0.0 0.00 0.00 0.00 92 1013.2
20211017052515 10 0.0 0.0 0.00 0.00 0.00 91 1013.3
20211017051520 10 0.0 0.0 0.00 0.00 0.00 92 1013.3
20211017050520 10 0.0 0.0 0.00 0.00 0.00 92 1013.1
20211017045520 10 0.0 0.0 0.00 0.00 0.00 92 1013.2
20211017044520 10 0.0 0.0 0.00 0.00 0.00 92 1013.0
20211017043520 10 0.0 0.0 0.00 0.00 0.00 93 1013.1
20211017042515 10 0.0 0.0 0.00 0.00 0.00 93 1012.9
20211017041515 10 0.0 0.0 0.00 0.00 0.00 92 1012.8
20211017040520 10 0.0 0.0 0.00 0.00 0.00 93 1012.8
20211017035520 10 0.0 0.0 0.00 0.00 0.00 92 1012.8
20211017034520 10 0.0 0.0 0.00 0.00 0.00 92 1012.8
20211017033520 10 0.0 0.0 0.00 0.00 0.00 93 1012.9
20211017032520 10 0.0 0.0 0.00 0.00 0.00 93 1012.8
20211017031515 10 0.0 0.0 0.00 0.00 0.00 92 1012.7
20211017030515 10 0.0 0.0 0.00 0.00 0.00 92 1012.7
20211017025522 10 0.0 0.0 0.00 0.00 0.00 92 1012.6
20211017024520 10 0.0 0.0 0.00 0.00 0.00 92 1012.6
20211017023520 10 0.0 0.0 0.00 0.00 0.00 92 1012.5
20211017022520 10 0.0 0.0 0.00 0.00 0.00 92 1012.5
20211017021521 10 0.0 0.0 0.00 0.00 0.00 92 1012.4
20211017020516 10 0.0 0.0 0.00 0.00 0.00 92 1012.4
20211017015523 10 0.0 0.0 0.00 0.00 0.00 92 1012.1
20211017014522 11 0.0 0.0 0.00 0.00 0.00 92 1012.0
20211017013520 11 0.0 0.0 0.00 0.00 0.00 91 1011.8
20211017012520 11 0.0 0.0 0.00 0.00 0.00 91 1011.7
20211017011519 11 0.0 0.0 0.00 0.00 0.00 91 1011.6
20211017010521 11 0.0 0.0 0.00 0.00 0.00 90 1011.6
20211017005515 12 0.0 0.0 0.00 0.00 0.00 90 1011.6
20211017004520 12 0.0 0.0 0.00 0.00 0.00 90 1011.4
20211017003520 12 0.0 0.0 0.00 0.00 0.00 89 1011.2
20211017002520 12 0.0 0.0 0.00 0.00 0.00 88 1011.1
20211017001522 13 0.0 0.0 0.00 0.00 0.00 86 1011.1
20211017000520 13 0.0 0.0 0.00 0.00 0.00 86 1010.9
20211016235521 13 0.0 0.0 0.00 0.00 0.00 83 1010.7
20211016234516 13 0.0 0.0 0.00 0.00 0.00 84 1010.6
20211016233521 13 0.0 0.0 0.00 0.00 0.00 82 1010.3
20211016232520 13 0.0 0.0 0.00 0.00 0.00 87 1010.1
20211016231520 13 0.0 0.0 0.00 0.00 0.00 87 1010.1
20211016230520 13 0.0 0.0 0.00 0.00 0.00 89 1009.8
20211016225520 13 0.0 0.0 0.00 0.00 0.00 88 1009.4
20211016224515 14 0.0 0.0 0.00 0.00 0.00 89 1009.4
20211016223516 14 0.0 0.0 0.00 0.00 0.00 87 1009.0
20211016222521 14 0.0 0.0 0.00 0.00 0.00 89 1008.9
20211016221521 14 0.0 0.0 0.00 0.00 0.00 89 1008.9
20211016220521 14 0.0 0.0 0.00 0.00 0.00 91 1008.4
20211016215521 15 0.0 0.0 0.00 0.00 0.00 91 1008.5
20211016214520 15 0.0 0.0 0.00 0.00 0.00 91 1008.2
20211016213515 15 0.0 0.0 0.00 0.00 0.00 92 1007.7
20211016212515 15 0.0 0.0 0.00 0.00 0.00 93 1007.4
20211016211520 15 0.0 0.0 0.00 0.00 0.00 94 1007.4
20211016210520 16 0.0 0.0 0.00 0.00 0.00 94 1007.0
20211016205520 16 0.0 0.0 0.00 0.00 0.00 94 1006.8
20211016204518 16 0.0 0.0 0.00 0.00 0.00 94 1006.6
20211016203520 16 0.0 0.0 0.00 0.00 0.00 94 1006.5
20211016202515 16 0.0 0.0 0.00 0.00 0.00 94 1006.4
20211016201520 16 0.0 0.0 0.00 0.00 0.00 95 1006.5
20211016200522 16 0.0 0.0 0.00 0.00 0.00 94 1006.5
20211016195522 16 0.0 0.0 0.00 0.00 0.00 94 1006.6
20211016194521 16 0.0 0.0 0.00 0.00 0.00 94 1006.5
20211016193521 16 0.0 0.0 0.00 0.00 0.00 94 1006.0
20211016192520 16 0.0 0.0 0.00 0.00 0.00 94 1005.7
20211016191514 16 0.0 0.0 0.00 0.00 0.00 94 1005.6
20211016190520 16 0.0 0.0 0.00 0.00 0.00 94 1006.2
20211016185520 16 0.0 0.0 0.00 0.00 0.00 94 1006.1
20211016184520 16 0.0 0.0 0.00 0.00 0.00 93 1005.1
20211016183521 16 0.0 0.0 0.00 0.00 0.00 93 1005.3
20211016182520 16 0.0 0.0 0.00 0.00 0.00 93 1005.2
20211016181522 16 0.0 0.0 0.00 0.00 0.00 92 1005.7
20211016180523 16 0.0 0.0 0.00 0.00 0.00 91 1006.1
20211016175522 17 0.0 0.0 0.00 0.00 0.00 89 1005.3
20211016174522 18 0.0 0.0 0.00 0.00 0.00 85 1005.8
20211016173520 20 0.0 0.0 0.00 0.00 0.00 79 1006.2
20211016172522 20 0.0 0.0 0.00 0.00 0.00 78 1006.0
20211016171520 21 0.0 0.0 0.00 0.00 0.00 79 1005.9
20211016170522 21 0.0 0.0 0.00 0.00 0.00 84 1005.9
20211016165522 22 0.0 0.0 0.00 0.00 0.00 84 1005.3
20211016164522 22 0.0 0.0 0.00 0.00 0.00 83 1005.7
20211016163523 22 0.0 0.0 0.00 0.00 0.00 84 1005.8
20211016162522 22 0.0 0.0 0.00 0.00 0.00 83 1006.0
20211016161518 22 0.0 0.0 0.00 0.00 0.00 83 1005.5
20211016160517 22 0.0 0.0 0.00 0.00 0.00 83 1005.7
20211016155523 22 0.0 0.0 0.00 0.00 0.00 84 1005.6
20211016154523 22 0.0 0.0 0.00 0.00 0.00 85 1005.6
20211016153522 21 0.0 0.0 0.00 0.00 0.00 87 1005.6